Time;durP1;ratioP1;P1;durP2;ratioP2;P2;SDS_P1;SDS_P2;PMS_P1;PMS_P2;Temp;Humidity;BMP_temperature;BMP_pressure;BME280_temperature;BME280_humidity;BME280_pressure;Samples;Min_cycle;Max_cycle;Signal;HPM_P1;HPM_P2
2021/04/06 00:01:01;;;;;;;4.60;2.20;;;;;;;;;;4898937;29;20590;-78
2021/04/06 00:04:10;;;;;;;2.63;2.30;;;;;;;;;;4909453;29;20553;-78
2021/04/06 00:07:17;;;;;;;2.50;2.10;;;;;;;;;;4895227;29;20606;-78
2021/04/06 00:10:32;;;;;;;5.50;2.20;;;;;;;;;;4896895;29;20629;-78
2021/04/06 00:13:37;;;;;;;3.97;2.00;;;;;;;;;;4896258;29;20621;-78
2021/04/06 00:16:43;;;;;;;3.20;1.70;;;;;;;;;;4905572;29;20597;-78
2021/04/06 00:19:49;;;;;;;5.27;1.97;;;;;;;;;;4895312;29;20558;-78
2021/04/06 00:22:55;;;;;;;4.37;1.80;;;;;;;;;;4894755;29;20681;-78
2021/04/06 00:26:01;;;;;;;6.30;2.00;;;;;;;;;;4905771;29;21136;-79
2021/04/06 00:29:05;;;;;;;4.13;1.60;;;;;;;;;;4895098;29;20586;-79
2021/04/06 00:32:12;;;;;;;4.27;2.10;;;;;;;;;;4882992;29;20625;-79
2021/04/06 00:35:16;;;;;;;2.60;1.47;;;;;;;;;;4893456;29;20550;-79
2021/04/06 00:38:22;;;;;;;3.90;1.93;;;;;;;;;;4904229;29;20609;-79
2021/04/06 00:41:27;;;;;;;3.17;1.83;;;;;;;;;;4903870;29;20606;-79
2021/04/06 00:44:34;;;;;;;2.37;1.77;;;;;;;;;;4882959;29;20610;-79
2021/04/06 00:47:39;;;;;;;3.83;1.70;;;;;;;;;;4903854;29;20594;-79
2021/04/06 00:51:10;;;;;;;4.93;2.00;;;;;;;;;;4892341;29;20551;-79
2021/04/06 00:54:16;;;;;;;4.53;2.00;;;;;;;;;;4892753;29;20546;-79
2021/04/06 00:57:26;;;;;;;3.80;2.03;;;;;;;;;;4892038;29;20594;-78
2021/04/06 01:00:31;;;;;;;5.73;2.37;;;;;;;;;;4902511;29;20593;-78
2021/04/06 01:03:37;;;;;;;5.07;2.27;;;;;;;;;;4903516;29;20621;-78
2021/04/06 01:07:11;;;;;;;7.00;2.23;;;;;;;;;;4889212;29;21184;-78
2021/04/06 01:10:17;;;;;;;2.77;2.00;;;;;;;;;;4912920;29;20902;-78
2021/04/06 01:13:24;;;;;;;2.70;2.00;;;;;;;;;;4890776;29;21192;-78
2021/04/06 01:16:28;;;;;;;4.70;2.30;;;;;;;;;;4900863;29;20657;-78
2021/04/06 01:19:34;;;;;;;6.07;2.03;;;;;;;;;;4900852;29;20542;-78
2021/04/06 01:22:39;;;;;;;3.33;1.77;;;;;;;;;;4871520;29;20978;-78
2021/04/06 01:25:45;;;;;;;4.47;1.97;;;;;;;;;;4871681;29;20547;-78
2021/04/06 01:28:49;;;;;;;3.87;1.57;;;;;;;;;;4887560;29;20598;-77
2021/04/06 01:31:54;;;;;;;3.90;1.77;;;;;;;;;;4909258;29;20551;-77
2021/04/06 01:34:59;;;;;;;5.50;2.40;;;;;;;;;;4887562;29;20550;-77
2021/04/06 01:38:05;;;;;;;4.47;2.03;;;;;;;;;;4888979;29;20589;-78
2021/04/06 01:41:09;;;;;;;6.83;2.27;;;;;;;;;;4898271;29;20534;-77
2021/04/06 01:44:13;;;;;;;3.93;2.00;;;;;;;;;;4898501;29;20590;-77
2021/04/06 01:47:18;;;;;;;6.07;1.87;;;;;;;;;;4889426;29;20602;-77
2021/04/06 01:50:23;;;;;;;4.27;2.13;;;;;;;;;;4889859;29;20630;-77
2021/04/06 01:53:27;;;;;;;6.00;2.20;;;;;;;;;;4878977;29;20642;-77
2021/04/06 01:56:45;;;;;;;3.63;2.10;;;;;;;;;;4875470;29;20625;-77
2021/04/06 02:00:00;;;;;;;5.33;1.90;;;;;;;;;;4915259;29;20593;-77
2021/04/06 02:03:26;;;;;;;5.10;1.80;;;;;;;;;;4916406;29;21207;-77
2021/04/06 02:06:34;;;;;;;4.07;1.73;;;;;;;;;;4901869;29;20594;-77
2021/04/06 02:09:40;;;;;;;5.97;2.07;;;;;;;;;;4876777;29;20562;-77
2021/04/06 02:12:44;;;;;;;7.90;2.00;;;;;;;;;;4897529;29;20657;-77
2021/04/06 02:15:57;;;;;;;2.63;1.60;;;;;;;;;;4897463;29;20547;-78
2021/04/06 02:19:01;;;;;;;5.07;2.00;;;;;;;;;;4897309;29;20555;-77
2021/04/06 02:22:09;;;;;;;5.43;2.00;;;;;;;;;;4897578;29;20669;-77
2021/04/06 02:25:16;;;;;;;7.27;2.00;;;;;;;;;;4886504;29;21180;-77
2021/04/06 02:28:25;;;;;;;2.33;1.70;;;;;;;;;;4898299;29;20546;-77
2021/04/06 02:31:29;;;;;;;5.27;1.80;;;;;;;;;;4891357;29;20602;-77
2021/04/06 02:34:39;;;;;;;2.73;1.80;;;;;;;;;;4897202;29;20550;-77
2021/04/06 02:37:45;;;;;;;5.17;1.97;;;;;;;;;;4878783;29;20551;-77
2021/04/06 02:41:01;;;;;;;4.00;1.90;;;;;;;;;;4880725;29;20606;-77
2021/04/06 02:44:06;;;;;;;5.70;1.87;;;;;;;;;;4897774;29;20621;-77
2021/04/06 02:47:10;;;;;;;2.87;2.00;;;;;;;;;;4898135;29;20550;-77
2021/04/06 02:50:19;;;;;;;4.37;2.10;;;;;;;;;;4897585;29;20551;-77
2021/04/06 02:53:25;;;;;;;3.30;2.00;;;;;;;;;;4878483;29;20634;-77
2021/04/06 02:56:34;;;;;;;3.37;2.03;;;;;;;;;;4884726;29;20954;-77
2021/04/06 02:59:39;;;;;;;5.93;2.30;;;;;;;;;;4908111;29;20883;-77
2021/04/06 03:02:43;;;;;;;3.30;2.13;;;;;;;;;;4896993;29;21231;-76
2021/04/06 03:05:58;;;;;;;2.87;2.00;;;;;;;;;;4886538;29;20550;-76
2021/04/06 03:09:02;;;;;;;3.43;2.40;;;;;;;;;;4896805;29;20610;-77
2021/04/06 03:12:06;;;;;;;7.43;2.50;;;;;;;;;;4897142;29;20652;-77
2021/04/06 03:15:12;;;;;;;4.17;2.37;;;;;;;;;;4900635;29;20590;-77
2021/04/06 03:18:17;;;;;;;4.77;2.50;;;;;;;;;;4900336;29;20641;-76
2021/04/06 03:21:24;;;;;;;5.00;2.50;;;;;;;;;;4901262;29;20942;-77
2021/04/06 03:24:29;;;;;;;6.47;3.43;;;;;;;;;;4900862;29;20550;-77
2021/04/06 03:27:33;;;;;;;4.43;2.67;;;;;;;;;;4902966;29;20599;-77
2021/04/06 03:30:38;;;;;;;5.63;3.03;;;;;;;;;;4889206;29;20602;-77
2021/04/06 03:33:45;;;;;;;4.03;2.70;;;;;;;;;;4889714;29;20629;-77
2021/04/06 03:36:49;;;;;;;4.93;2.53;;;;;;;;;;4899888;29;20590;-77
2021/04/06 03:39:53;;;;;;;5.90;2.77;;;;;;;;;;4900857;29;21085;-77
2021/04/06 03:43:14;;;;;;;5.63;2.60;;;;;;;;;;4889440;29;20661;-77
2021/04/06 03:46:25;;;;;;;9.17;3.20;;;;;;;;;;4877884;29;20602;-78
2021/04/06 03:49:32;;;;;;;5.00;2.80;;;;;;;;;;4889317;29;20606;-77
2021/04/06 03:52:36;;;;;;;4.33;2.90;;;;;;;;;;4899957;29;20621;-77
2021/04/06 03:55:41;;;;;;;4.80;2.37;;;;;;;;;;4888990;29;20586;-77
2021/04/06 03:58:58;;;;;;;2.47;2.10;;;;;;;;;;4889541;29;20554;-77
2021/04/06 04:02:02;;;;;;;2.70;1.97;;;;;;;;;;4899529;29;20998;-77
2021/04/06 04:05:07;;;;;;;3.47;2.57;;;;;;;;;;4900314;29;20586;-77
2021/04/06 04:08:11;;;;;;;3.07;2.23;;;;;;;;;;4881675;29;20550;-77
2021/04/06 04:11:16;;;;;;;4.57;2.17;;;;;;;;;;4881068;29;20536;-77
2021/04/06 04:14:20;;;;;;;5.43;2.70;;;;;;;;;;4902575;29;20621;-77
2021/04/06 04:17:25;;;;;;;7.17;2.60;;;;;;;;;;4899125;29;20652;-76
2021/04/06 04:20:30;;;;;;;7.13;2.70;;;;;;;;;;4899559;29;21161;-76
2021/04/06 04:23:34;;;;;;;5.90;2.60;;;;;;;;;;4898860;29;20654;-77
2021/04/06 04:26:38;;;;;;;4.37;2.20;;;;;;;;;;4899334;29;20593;-76
2021/04/06 04:29:42;;;;;;;4.27;2.10;;;;;;;;;;4900251;29;20550;-77
2021/04/06 04:32:46;;;;;;;4.40;2.20;;;;;;;;;;4898949;29;20657;-76
2021/04/06 04:35:51;;;;;;;4.47;3.03;;;;;;;;;;4884276;29;21196;-77
2021/04/06 04:38:55;;;;;;;6.30;2.20;;;;;;;;;;4881353;29;21161;-76
2021/04/06 04:41:59;;;;;;;6.10;2.10;;;;;;;;;;4891561;29;20622;-77
2021/04/06 04:45:04;;;;;;;5.17;2.20;;;;;;;;;;4891769;29;20536;-76
2021/04/06 04:48:08;;;;;;;2.77;1.90;;;;;;;;;;4898709;29;20594;-76
2021/04/06 04:51:12;;;;;;;2.53;1.73;;;;;;;;;;4899048;29;20609;-77
2021/04/06 04:54:16;;;;;;;2.77;1.87;;;;;;;;;;4898609;29;20594;-77
2021/04/06 04:57:20;;;;;;;2.53;1.80;;;;;;;;;;4899359;29;20598;-77
2021/04/06 05:00:25;;;;;;;5.27;2.67;;;;;;;;;;4880439;29;20540;-76
2021/04/06 05:03:29;;;;;;;4.13;2.53;;;;;;;;;;4883578;29;20661;-76
2021/04/06 05:06:33;;;;;;;4.20;2.13;;;;;;;;;;4899459;29;20601;-76
2021/04/06 05:09:36;;;;;;;3.73;1.93;;;;;;;;;;4887665;29;20605;-76
2021/04/06 05:12:41;;;;;;;5.83;2.13;;;;;;;;;;4898203;29;20633;-76
2021/04/06 05:15:45;;;;;;;6.23;2.40;;;;;;;;;;4880624;29;20597;-76
2021/04/06 05:18:50;;;;;;;6.20;2.30;;;;;;;;;;4904591;29;20633;-77
2021/04/06 05:21:54;;;;;;;5.43;2.97;;;;;;;;;;4898208;29;20597;-77
2021/04/06 05:24:58;;;;;;;3.87;2.77;;;;;;;;;;4899784;29;20605;-77
2021/04/06 05:28:02;;;;;;;4.40;2.23;;;;;;;;;;4885513;29;20629;-77
2021/04/06 05:31:07;;;;;;;4.63;2.03;;;;;;;;;;4887116;29;20550;-77
2021/04/06 05:34:11;;;;;;;5.70;2.40;;;;;;;;;;4885891;29;20586;-77
2021/04/06 05:37:16;;;;;;;4.43;2.00;;;;;;;;;;4898512;29;20954;-76
2021/04/06 05:40:20;;;;;;;3.63;2.63;;;;;;;;;;4897927;29;20550;-76
2021/04/06 05:43:25;;;;;;;5.10;2.20;;;;;;;;;;4897807;29;20669;-77
2021/04/06 05:46:36;;;;;;;6.43;2.27;;;;;;;;;;4886561;29;20590;-75
2021/04/06 05:49:41;;;;;;;7.57;4.57;;;;;;;;;;4896057;29;21161;-77
2021/04/06 05:52:46;;;;;;;7.20;3.70;;;;;;;;;;4897854;29;20630;-77
2021/04/06 05:55:50;;;;;;;7.83;2.70;;;;;;;;;;4892942;29;20594;-77
2021/04/06 05:58:58;;;;;;;5.03;2.53;;;;;;;;;;4898281;29;20946;-77
2021/04/06 06:02:03;;;;;;;3.40;2.30;;;;;;;;;;4897938;29;20630;-77
2021/04/06 06:05:08;;;;;;;4.73;2.53;;;;;;;;;;4897765;29;20539;-77
2021/04/06 06:08:13;;;;;;;4.87;2.97;;;;;;;;;;4897277;29;20594;-77
2021/04/06 06:11:18;;;;;;;4.03;2.43;;;;;;;;;;4897501;29;21101;-77
2021/04/06 06:14:37;;;;;;;4.30;2.47;;;;;;;;;;4897335;29;20935;-76
2021/04/06 06:18:01;;;;;;;4.47;2.30;;;;;;;;;;4886826;29;20613;-76
2021/04/06 06:21:05;;;;;;;4.30;1.90;;;;;;;;;;4897527;29;20602;-77
2021/04/06 06:24:20;;;;;;;4.70;2.50;;;;;;;;;;4886205;29;20637;-77
2021/04/06 06:27:42;;;;;;;3.43;2.20;;;;;;;;;;4876155;29;20550;-76
2021/04/06 06:30:46;;;;;;;6.03;2.40;;;;;;;;;;4886808;29;20546;-76
2021/04/06 06:33:50;;;;;;;5.20;2.60;;;;;;;;;;4886159;29;21002;-77
2021/04/06 06:37:15;;;;;;;3.93;2.43;;;;;;;;;;4875116;29;20598;-77
2021/04/06 06:40:24;;;;;;;4.33;1.80;;;;;;;;;;4840925;29;20989;-86
2021/04/06 06:43:29;;;;;;;3.90;2.03;;;;;;;;;;4853341;29;21183;-86
2021/04/06 06:46:35;;;;;;;2.83;1.57;;;;;;;;;;4853584;29;21008;-86
2021/04/06 06:49:41;;;;;;;6.53;1.87;;;;;;;;;;4857037;29;20569;-86
2021/04/06 06:52:51;;;;;;;6.27;2.07;;;;;;;;;;4857215;29;20557;-86
2021/04/06 06:55:55;;;;;;;5.00;1.93;;;;;;;;;;4846956;29;21005;-86
2021/04/06 06:59:34;;;;;;;5.80;1.70;;;;;;;;;;4857374;29;20548;-86
2021/04/06 07:02:39;;;;;;;4.77;2.30;;;;;;;;;;4857790;29;20537;-86
2021/04/06 07:05:43;;;;;;;4.53;2.30;;;;;;;;;;4835727;29;20617;-85
2021/04/06 07:08:48;;;;;;;5.95;2.40;;;;;;;;;;4827054;29;20739;-86
2021/04/06 07:11:58;;;;;;;9.23;3.30;;;;;;;;;;4849054;29;20180;-85
2021/04/06 07:15:03;;;;;;;7.07;2.97;;;;;;;;;;4828731;29;20629;-86
2021/04/06 07:18:19;;;;;;;6.40;2.93;;;;;;;;;;4838596;29;20557;-85
2021/04/06 07:21:25;;;;;;;8.23;1.90;;;;;;;;;;4828307;29;20557;-86
2021/04/06 07:24:36;;;;;;;3.17;1.87;;;;;;;;;;4837778;29;20660;-87
2021/04/06 07:27:42;;;;;;;5.23;2.30;;;;;;;;;;4828122;29;20558;-85
2021/04/06 07:31:15;;;;;;;6.37;2.47;;;;;;;;;;4828205;29;20542;-85
2021/04/06 07:34:20;;;;;;;5.77;2.47;;;;;;;;;;4837922;29;20554;-85
2021/04/06 07:37:24;;;;;;;9.67;3.37;;;;;;;;;;4827161;29;20617;-85
2021/04/06 07:40:31;;;;;;;5.47;2.60;;;;;;;;;;4837611;29;20577;-86
2021/04/06 07:43:36;;;;;;;3.97;1.77;;;;;;;;;;4837922;29;20951;-86
2021/04/06 07:46:43;;;;;;;8.37;2.43;;;;;;;;;;4827067;29;20625;-85
2021/04/06 07:49:47;;;;;;;9.37;2.60;;;;;;;;;;4848315;29;20553;-85
2021/04/06 07:53:24;;;;;;;5.93;2.30;;;;;;;;;;4854147;29;20600;-85
2021/04/06 07:56:42;;;;;;;4.10;1.93;;;;;;;;;;4845308;29;20965;-85
2021/04/06 07:59:54;;;;;;;4.67;2.03;;;;;;;;;;4845210;29;20553;-85
2021/04/06 08:02:58;;;;;;;6.00;2.00;;;;;;;;;;4834581;29;20565;-85
2021/04/06 08:06:43;;;;;;;6.47;2.13;;;;;;;;;;4845324;29;20620;-86
2021/04/06 08:09:57;;;;;;;6.73;1.87;;;;;;;;;;4815322;29;20632;-85
2021/04/06 08:13:02;;;;;;;4.83;2.23;;;;;;;;;;4845100;29;20553;-85
2021/04/06 08:16:17;;;;;;;5.30;2.37;;;;;;;;;;4833877;29;20656;-85
2021/04/06 08:19:52;;;;;;;5.10;1.90;;;;;;;;;;4845614;29;20600;-88
2021/04/06 08:23:10;;;;;;;7.90;4.97;;;;;;;;;;4856221;29;20561;-85
2021/04/06 08:26:25;;;;;;;6.93;2.30;;;;;;;;;;4856046;29;20626;-85
2021/04/06 08:29:29;;;;;;;3.90;2.13;;;;;;;;;;4855515;29;20605;-85
2021/04/06 08:32:34;;;;;;;5.53;2.27;;;;;;;;;;4834849;29;20612;-85
2021/04/06 08:35:52;;;;;;;6.57;2.20;;;;;;;;;;4826268;29;20656;-85
2021/04/06 08:38:57;;;;;;;5.17;2.10;;;;;;;;;;4826474;29;20613;-86
2021/04/06 08:42:05;;;;;;;7.47;5.10;;;;;;;;;;4847415;29;20550;-85
2021/04/06 08:45:10;;;;;;;4.57;2.17;;;;;;;;;;4826716;29;21033;-85
2021/04/06 08:48:46;;;;;;;4.37;2.43;;;;;;;;;;4847294;29;20569;-85
2021/04/06 08:51:59;;;;;;;4.87;2.00;;;;;;;;;;4837265;29;20546;-85
2021/04/06 08:55:12;;;;;;;6.27;2.37;;;;;;;;;;4838243;29;20621;-85
2021/04/06 08:58:18;;;;;;;5.53;2.37;;;;;;;;;;4835242;29;20601;-85
2021/04/06 09:01:22;;;;;;;4.63;2.10;;;;;;;;;;4836896;29;20558;-85
2021/04/06 09:04:30;;;;;;;7.57;2.40;;;;;;;;;;4847085;29;20649;-85
2021/04/06 09:07:39;;;;;;;6.27;2.33;;;;;;;;;;4841149;29;20628;-85
2021/04/06 09:10:43;;;;;;;6.03;2.20;;;;;;;;;;4854024;29;20914;-85
2021/04/06 09:13:53;;;;;;;6.30;1.83;;;;;;;;;;4833404;29;20561;-85
2021/04/06 09:16:57;;;;;;;3.00;1.87;;;;;;;;;;4843868;29;21191;-85
2021/04/06 09:20:12;;;;;;;3.60;1.80;;;;;;;;;;4854901;29;20887;-86
2021/04/06 09:23:17;;;;;;;3.67;1.97;;;;;;;;;;4835568;29;20602;-86
2021/04/06 09:26:22;;;;;;;27.13;14.47;;;;;;;;;;4841768;29;20660;-87
2021/04/06 09:29:33;;;;;;;7.50;5.20;;;;;;;;;;4843151;29;21230;-87
2021/04/06 09:32:37;;;;;;;9.57;4.90;;;;;;;;;;4854869;29;20604;-88
2021/04/06 09:35:50;;;;;;;8.17;7.37;;;;;;;;;;4861455;29;20660;-87
2021/04/06 09:38:55;;;;;;;6.70;3.20;;;;;;;;;;4847395;29;20632;-85
2021/04/06 09:42:01;;;;;;;4.63;2.83;;;;;;;;;;4853794;29;20569;-85
2021/04/06 09:45:06;;;;;;;4.50;2.63;;;;;;;;;;4842853;29;20656;-85
2021/04/06 09:48:15;;;;;;;5.27;2.23;;;;;;;;;;4842778;29;20980;-86
2021/04/06 09:51:20;;;;;;;4.87;2.13;;;;;;;;;;4843588;29;20573;-86
2021/04/06 09:54:34;;;;;;;4.83;2.13;;;;;;;;;;4832698;29;20545;-85
2021/04/06 09:57:44;;;;;;;4.83;2.03;;;;;;;;;;4863882;29;20977;-85
2021/04/06 10:00:48;;;;;;;2.70;1.87;;;;;;;;;;4842912;29;20607;-83
2021/04/06 10:03:58;;;;;;;5.60;1.93;;;;;;;;;;4835033;29;20605;-84
2021/04/06 10:07:24;;;;;;;7.63;2.00;;;;;;;;;;4849997;29;20632;-84
2021/04/06 10:10:31;;;;;;;6.37;1.87;;;;;;;;;;4853077;29;21175;-84
2021/04/06 10:13:38;;;;;;;9.00;1.97;;;;;;;;;;4872253;23;20696;-82
2021/04/06 10:16:42;;;;;;;4.60;1.77;;;;;;;;;;4895061;29;20933;-82
2021/04/06 10:20:00;;;;;;;6.57;2.33;;;;;;;;;;4905893;29;20555;-81
2021/04/06 10:23:05;;;;;;;5.13;1.70;;;;;;;;;;4905270;29;20948;-82
2021/04/06 10:26:18;;;;;;;4.27;1.83;;;;;;;;;;4927397;29;20604;-82
2021/04/06 10:29:31;;;;;;;4.10;1.87;;;;;;;;;;4905942;29;20628;-81
2021/04/06 10:32:45;;;;;;;3.47;2.10;;;;;;;;;;4897982;29;20561;-81
2021/04/06 10:35:59;;;;;;;4.77;2.00;;;;;;;;;;4916804;29;20550;-80
2021/04/06 10:39:05;;;;;;;5.93;2.40;;;;;;;;;;4916267;29;20950;-80
2021/04/06 10:42:12;;;;;;;5.57;2.27;;;;;;;;;;4916459;29;20583;-80
2021/04/06 10:45:21;;;;;;;5.17;1.97;;;;;;;;;;4916411;29;20621;-80
2021/04/06 10:48:29;;;;;;;3.30;2.10;;;;;;;;;;4917328;29;20557;-79
2021/04/06 10:51:34;;;;;;;5.37;2.30;;;;;;;;;;4894508;29;20596;-79
2021/04/06 10:54:50;;;;;;;4.63;2.10;;;;;;;;;;4905553;29;21186;-79
2021/04/06 10:57:54;;;;;;;4.50;2.00;;;;;;;;;;4916135;29;20597;-80
2021/04/06 11:01:11;;;;;;;2.97;2.00;;;;;;;;;;4894953;29;20545;-81
2021/04/06 11:04:22;;;;;;;6.13;2.20;;;;;;;;;;4927234;29;20629;-80
2021/04/06 11:07:28;;;;;;;6.43;2.57;;;;;;;;;;4927839;29;21161;-81
2021/04/06 11:10:32;;;;;;;4.73;2.80;;;;;;;;;;4886584;29;20542;-81
2021/04/06 11:13:37;;;;;;;8.57;2.53;;;;;;;;;;4919234;29;20641;-80
2021/04/06 11:16:43;;;;;;;7.57;2.73;;;;;;;;;;4897444;29;21112;-81
2021/04/06 11:19:49;;;;;;;3.40;2.10;;;;;;;;;;4886686;29;20609;-80
2021/04/06 11:22:53;;;;;;;11.30;5.10;;;;;;;;;;4877150;29;20602;-81
2021/04/06 11:25:57;;;;;;;6.37;2.47;;;;;;;;;;4897237;29;20609;-81
2021/04/06 11:29:04;;;;;;;6.57;2.50;;;;;;;;;;4887043;29;20566;-81
2021/04/06 11:32:10;;;;;;;5.27;2.20;;;;;;;;;;4926216;29;20597;-81
2021/04/06 11:35:15;;;;;;;3.30;2.00;;;;;;;;;;4919263;29;20632;-81
2021/04/06 11:38:19;;;;;;;3.27;1.90;;;;;;;;;;4900910;29;20550;-81
2021/04/06 11:41:23;;;;;;;4.07;2.10;;;;;;;;;;4902062;29;21073;-81
2021/04/06 11:44:27;;;;;;;3.50;1.67;;;;;;;;;;4904751;29;20652;-81
2021/04/06 11:47:31;;;;;;;4.37;2.00;;;;;;;;;;4908311;29;20589;-81
2021/04/06 11:50:35;;;;;;;4.50;2.10;;;;;;;;;;4900436;29;20597;-81
2021/04/06 11:53:40;;;;;;;4.97;2.00;;;;;;;;;;4911555;29;20653;-81
2021/04/06 11:56:46;;;;;;;5.80;1.83;;;;;;;;;;4908293;29;20588;-81
2021/04/06 11:59:52;;;;;;;4.63;1.30;;;;;;;;;;4902181;29;20602;-81
2021/04/06 12:02:56;;;;;;;4.23;1.20;;;;;;;;;;4889532;29;20609;-82
2021/04/06 12:06:00;;;;;;;4.57;1.17;;;;;;;;;;4900015;29;21181;-82
2021/04/06 12:09:06;;;;;;;3.17;1.20;;;;;;;;;;4889244;29;20557;-82
2021/04/06 12:12:10;;;;;;;4.60;1.83;;;;;;;;;;4900115;29;20562;-82
2021/04/06 12:15:15;;;;;;;4.27;1.53;;;;;;;;;;4889049;29;21200;-81
2021/04/06 12:18:19;;;;;;;5.47;1.80;;;;;;;;;;4896708;29;20597;-81
2021/04/06 12:21:23;;;;;;;2.23;1.43;;;;;;;;;;4908442;29;20537;-82
2021/04/06 12:24:27;;;;;;;3.63;1.40;;;;;;;;;;4914971;29;20652;-81
2021/04/06 12:27:32;;;;;;;2.87;1.50;;;;;;;;;;4908273;29;20881;-81
2021/04/06 12:30:36;;;;;;;3.47;1.50;;;;;;;;;;4903745;29;20597;-83
2021/04/06 12:33:42;;;;;;;2.90;1.57;;;;;;;;;;4899921;29;20622;-82
2021/04/06 12:36:48;;;;;;;2.97;1.20;;;;;;;;;;4900696;29;20946;-81
2021/04/06 12:39:52;;;;;;;2.87;0.97;;;;;;;;;;4910485;29;20593;-82
2021/04/06 12:42:56;;;;;;;4.70;1.40;;;;;;;;;;4931485;29;20600;-81
2021/04/06 12:46:01;;;;;;;3.00;1.63;;;;;;;;;;4917587;29;20656;-82
2021/04/06 12:49:05;;;;;;;6.13;1.70;;;;;;;;;;4918683;29;20612;-81
2021/04/06 12:52:10;;;;;;;4.40;1.40;;;;;;;;;;4916759;29;20561;-80
2021/04/06 12:55:14;;;;;;;1.77;1.20;;;;;;;;;;4899603;29;20618;-81
2021/04/06 12:58:18;;;;;;;6.23;1.80;;;;;;;;;;4914620;29;20585;-81
2021/04/06 13:01:22;;;;;;;2.60;1.57;;;;;;;;;;4907489;29;20579;-81
2021/04/06 13:04:27;;;;;;;4.77;1.27;;;;;;;;;;4888618;29;20966;-81
2021/04/06 13:07:31;;;;;;;2.77;1.30;;;;;;;;;;4921338;29;20554;-81
2021/04/06 13:10:39;;;;;;;3.40;1.13;;;;;;;;;;4923255;29;20603;-80
2021/04/06 13:13:43;;;;;;;2.23;1.00;;;;;;;;;;4888120;29;20661;-81
2021/04/06 13:16:49;;;;;;;1.73;1.00;;;;;;;;;;4918189;29;20534;-81
2021/04/06 13:19:53;;;;;;;2.37;1.07;;;;;;;;;;4907365;29;20542;-81
2021/04/06 13:22:58;;;;;;;2.30;1.00;;;;;;;;;;4907337;29;20593;-82
2021/04/06 13:26:02;;;;;;;4.43;1.20;;;;;;;;;;4917963;29;20601;-81
2021/04/06 13:29:06;;;;;;;2.43;1.03;;;;;;;;;;4918089;29;20890;-81
2021/04/06 13:32:10;;;;;;;5.07;1.97;;;;;;;;;;4906337;29;20226;-81
2021/04/06 13:35:15;;;;;;;4.60;1.57;;;;;;;;;;4892743;29;20232;-81
2021/04/06 13:38:20;;;;;;;3.17;1.43;;;;;;;;;;4931107;29;20213;-81
2021/04/06 13:41:26;;;;;;;1.77;1.00;;;;;;;;;;4888240;29;20181;-81
2021/04/06 13:44:30;;;;;;;3.50;1.30;;;;;;;;;;4898642;29;20558;-81
2021/04/06 13:47:34;;;;;;;4.50;1.40;;;;;;;;;;4898823;29;20183;-81
2021/04/06 13:50:40;;;;;;;5.37;1.00;;;;;;;;;;4908256;29;20201;-81
2021/04/06 13:53:44;;;;;;;2.70;1.10;;;;;;;;;;4898768;29;20221;-80
2021/04/06 13:56:48;;;;;;;4.23;1.40;;;;;;;;;;4920094;29;20189;-80
2021/04/06 13:59:53;;;;;;;3.80;1.87;;;;;;;;;;4887767;29;20181;-82
2021/04/06 14:02:57;;;;;;;2.63;1.17;;;;;;;;;;4898052;29;20201;-81
2021/04/06 14:06:01;;;;;;;2.10;1.00;;;;;;;;;;4887423;29;20209;-82
2021/04/06 14:09:06;;;;;;;5.90;1.30;;;;;;;;;;4887779;29;20194;-81
2021/04/06 14:12:10;;;;;;;4.47;1.20;;;;;;;;;;4887445;29;20665;-81
2021/04/06 14:15:15;;;;;;;3.23;1.00;;;;;;;;;;4898044;29;20241;-81
2021/04/06 14:18:19;;;;;;;3.67;1.00;;;;;;;;;;4898207;29;20178;-81
2021/04/06 14:21:24;;;;;;;2.87;1.20;;;;;;;;;;4905487;29;20208;-81
2021/04/06 14:24:28;;;;;;;10.93;1.57;;;;;;;;;;4903359;29;20224;-81
2021/04/06 14:27:32;;;;;;;1.63;0.87;;;;;;;;;;4906714;29;20209;-81
2021/04/06 14:30:41;;;;;;;2.73;1.00;;;;;;;;;;4928254;29;20188;-83
2021/04/06 14:33:46;;;;;;;3.93;1.30;;;;;;;;;;4898337;29;20225;-81
2021/04/06 14:36:50;;;;;;;1.70;1.00;;;;;;;;;;4877157;29;20205;-81
2021/04/06 14:39:54;;;;;;;5.73;1.60;;;;;;;;;;4926858;29;20217;-82
2021/04/06 14:43:20;;;;;;;4.50;2.10;;;;;;;;;;4905919;29;20208;-80
2021/04/06 14:46:25;;;;;;;4.10;1.77;;;;;;;;;;4887040;29;20614;-82
2021/04/06 14:49:29;;;;;;;5.07;1.37;;;;;;;;;;4908769;29;20618;-81
2021/04/06 14:52:33;;;;;;;5.23;1.70;;;;;;;;;;4898109;29;20558;-81
2021/04/06 14:55:38;;;;;;;2.53;1.10;;;;;;;;;;4909056;29;20555;-83
2021/04/06 14:58:45;;;;;;;3.63;1.37;;;;;;;;;;4909579;29;20584;-81
2021/04/06 15:01:50;;;;;;;3.60;1.50;;;;;;;;;;4920169;29;20604;-81
2021/04/06 15:04:55;;;;;;;5.40;1.50;;;;;;;;;;4898772;29;21178;-81
2021/04/06 15:07:59;;;;;;;3.10;1.20;;;;;;;;;;4920502;29;20594;-83
2021/04/06 15:11:04;;;;;;;3.17;1.10;;;;;;;;;;4924584;29;20566;-83
2021/04/06 15:14:08;;;;;;;2.83;1.10;;;;;;;;;;4901446;29;20645;-86
2021/04/06 15:17:13;;;;;;;2.73;1.20;;;;;;;;;;4925437;29;20562;-83
2021/04/06 15:20:18;;;;;;;4.23;1.10;;;;;;;;;;4922197;29;20624;-84
2021/04/06 15:23:27;;;;;;;5.33;0.97;;;;;;;;;;4909853;29;20635;-86
2021/04/06 15:26:31;;;;;;;2.53;1.10;;;;;;;;;;4911147;29;20618;-85
2021/04/06 15:29:35;;;;;;;2.93;1.50;;;;;;;;;;4912051;29;20633;-86
2021/04/06 15:32:40;;;;;;;3.87;1.40;;;;;;;;;;4911277;29;20604;-84
2021/04/06 15:35:45;;;;;;;3.23;1.27;;;;;;;;;;4911648;29;20561;-84
2021/04/06 15:38:49;;;;;;;2.73;1.20;;;;;;;;;;4924261;29;20549;-85
2021/04/06 15:41:54;;;;;;;2.83;1.50;;;;;;;;;;4914526;29;20553;-84
2021/04/06 15:44:59;;;;;;;3.23;1.23;;;;;;;;;;4910410;29;20620;-83
2021/04/06 15:48:05;;;;;;;4.77;1.30;;;;;;;;;;4908685;29;20644;-83
2021/04/06 15:51:10;;;;;;;1.87;1.10;;;;;;;;;;4908783;29;21115;-83
2021/04/06 15:54:15;;;;;;;3.33;1.13;;;;;;;;;;4915994;29;20641;-83
2021/04/06 15:57:23;;;;;;;2.30;1.43;;;;;;;;;;4900437;29;20562;-83
2021/04/06 16:00:29;;;;;;;2.00;1.40;;;;;;;;;;4889949;29;20550;-83
2021/04/06 16:03:34;;;;;;;8.40;1.57;;;;;;;;;;4906055;29;20649;-83
2021/04/06 16:06:39;;;;;;;2.17;1.47;;;;;;;;;;4919493;29;20609;-84
2021/04/06 16:09:44;;;;;;;2.90;1.27;;;;;;;;;;4929980;29;20908;-84
2021/04/06 16:12:48;;;;;;;3.90;1.40;;;;;;;;;;4909387;29;20605;-84
2021/04/06 16:15:53;;;;;;;3.23;1.10;;;;;;;;;;4920323;29;20557;-83
2021/04/06 16:18:57;;;;;;;2.00;1.23;;;;;;;;;;4890124;29;20594;-85
2021/04/06 16:22:02;;;;;;;2.87;1.30;;;;;;;;;;4941067;23;20684;-85
2021/04/06 16:25:09;;;;;;;1.70;1.53;;;;;;;;;;4909633;29;21182;-85
2021/04/06 16:28:13;;;;;;;2.17;1.20;;;;;;;;;;4891962;29;21037;-85
2021/04/06 16:31:18;;;;;;;3.20;1.10;;;;;;;;;;4903463;29;20550;-85
2021/04/06 16:34:22;;;;;;;3.37;0.83;;;;;;;;;;4888994;29;20589;-85
2021/04/06 16:37:27;;;;;;;4.13;2.07;;;;;;;;;;4892918;29;20551;-87
2021/04/06 16:40:31;;;;;;;2.33;1.20;;;;;;;;;;4903894;29;20589;-86
2021/04/06 16:43:36;;;;;;;4.33;2.60;;;;;;;;;;4893847;29;20621;-87
2021/04/06 16:46:41;;;;;;;1.83;1.20;;;;;;;;;;4894589;29;20642;-85
2021/04/06 16:49:45;;;;;;;11.60;1.70;;;;;;;;;;4894757;29;20558;-87
2021/04/06 16:52:50;;;;;;;4.60;2.00;;;;;;;;;;4886076;29;20650;-86
2021/04/06 16:55:55;;;;;;;2.93;1.60;;;;;;;;;;4893747;29;20595;-85
2021/04/06 16:58:59;;;;;;;6.00;1.60;;;;;;;;;;4897718;29;20543;-86
2021/04/06 17:02:03;;;;;;;3.53;1.83;;;;;;;;;;4886758;29;20658;-85
2021/04/06 17:05:08;;;;;;;6.27;1.63;;;;;;;;;;4888651;29;20543;-85
2021/04/06 17:08:13;;;;;;;6.40;2.23;;;;;;;;;;4899087;29;20634;-85
2021/04/06 17:11:18;;;;;;;2.53;1.50;;;;;;;;;;4892783;29;20590;-85
2021/04/06 17:14:22;;;;;;;3.10;1.37;;;;;;;;;;4884185;29;20593;-85
2021/04/06 17:17:26;;;;;;;4.87;1.50;;;;;;;;;;4872188;29;20544;-84
2021/04/06 17:20:31;;;;;;;4.73;1.50;;;;;;;;;;4878987;29;20594;-84
2021/04/06 17:23:35;;;;;;;2.47;1.50;;;;;;;;;;4888291;29;20641;-84
2021/04/06 17:26:39;;;;;;;5.27;1.53;;;;;;;;;;4888309;29;20554;-85
2021/04/06 17:29:44;;;;;;;6.23;1.87;;;;;;;;;;4889260;29;20582;-85
2021/04/06 17:32:48;;;;;;;2.90;2.20;;;;;;;;;;4889360;29;20625;-85
2021/04/06 17:35:56;;;;;;;2.03;1.50;;;;;;;;;;4881734;29;20552;-85
2021/04/06 17:39:00;;;;;;;7.07;3.20;;;;;;;;;;4877897;29;20582;-85
2021/04/06 17:42:05;;;;;;;7.53;4.07;;;;;;;;;;4880283;29;20614;-82
2021/04/06 17:45:11;;;;;;;7.00;2.83;;;;;;;;;;4869701;29;20551;-83
2021/04/06 17:48:15;;;;;;;4.20;1.60;;;;;;;;;;4887831;29;20637;-83
2021/04/06 17:51:20;;;;;;;3.90;2.13;;;;;;;;;;4898344;29;20622;-84
2021/04/06 17:54:24;;;;;;;11.37;5.00;;;;;;;;;;4898195;29;21150;-84
2021/04/06 17:57:28;;;;;;;4.77;1.20;;;;;;;;;;4887666;29;21156;-84
2021/04/06 18:00:42;;;;;;;8.33;5.07;;;;;;;;;;4887826;29;20546;-84
2021/04/06 18:03:46;;;;;;;1.90;1.30;;;;;;;;;;4879835;29;21204;-83
2021/04/06 18:06:51;;;;;;;4.70;2.40;;;;;;;;;;4897447;29;20601;-85
2021/04/06 18:09:55;;;;;;;3.17;1.93;;;;;;;;;;4889768;29;20562;-87
2021/04/06 18:12:59;;;;;;;2.80;1.57;;;;;;;;;;4887675;29;20629;-86
2021/04/06 18:16:04;;;;;;;2.30;1.30;;;;;;;;;;4885582;29;20595;-86
2021/04/06 18:19:09;;;;;;;7.13;2.87;;;;;;;;;;4898737;29;20562;-87
2021/04/06 18:22:14;;;;;;;3.63;1.67;;;;;;;;;;4887667;29;20645;-86
2021/04/06 18:25:21;;;;;;;2.13;1.70;;;;;;;;;;4887578;29;20554;-87
2021/04/06 18:28:26;;;;;;;1.77;1.17;;;;;;;;;;4876597;29;20614;-86
2021/04/06 18:31:31;;;;;;;1.70;1.27;;;;;;;;;;4886930;29;20597;-85
2021/04/06 18:34:35;;;;;;;2.20;1.40;;;;;;;;;;4897519;29;20554;-86
2021/04/06 18:37:44;;;;;;;1.10;0.90;;;;;;;;;;4897750;29;20895;-85
2021/04/06 18:40:49;;;;;;;1.50;1.13;;;;;;;;;;4886524;29;21156;-86